Time;durP1;ratioP1;P1;durP2;ratioP2;P2;SDS_P1;SDS_P2;PMS_P1;PMS_P2;Temp;Humidity;BMP_temperature;BMP_pressure;BME280_temperature;BME280_humidity;BME280_pressure;Samples;Min_cycle;Max_cycle;Signal;HPM_P1;HPM_P2
2022/12/06 00:01:21;;;;;;;;;36.00;30.33;;;;;8.16;68.13;-19431.25;5003304;28;45519;-89
2022/12/06 00:03:51;;;;;;;;;29.33;29.33;;;;;8.05;67.97;-19428.28;4995174;28;45631;-90
2022/12/06 00:06:19;;;;;;;;;34.33;31.33;;;;;8.16;67.80;-19431.25;4976051;28;47366;-91
2022/12/06 00:08:46;;;;;;;;;27.33;25.67;;;;;8.12;67.89;-19430.03;4997503;28;45500;-91
2022/12/06 00:11:22;;;;;;;;;31.67;27.33;;;;;8.14;68.35;-19430.56;4975265;28;45431;-89
2022/12/06 00:13:52;;;;;;;;;33.25;31.25;;;;;8.11;68.00;-19429.91;4977498;28;45614;-90
2022/12/06 00:16:17;;;;;;;;;40.33;31.00;;;;;7.51;68.29;-19413.94;4983328;28;47549;-90
2022/12/06 00:18:44;;;;;;;;;36.00;31.00;;;;;7.91;68.33;-19424.63;4994765;28;45488;-90
2022/12/06 00:21:10;;;;;;;;;33.33;28.00;;;;;8.09;68.31;-19429.34;4984399;28;45396;-96
2022/12/06 00:23:37;;;;;;;;;30.25;27.25;;;;;7.67;68.41;-19418.13;4993339;28;45380;-95
2022/12/06 00:26:04;;;;;;;;;36.25;32.75;;;;;7.75;68.06;-19420.44;4985375;28;48300;-96
2022/12/06 00:28:29;;;;;;;;;36.50;32.00;;;;;7.28;68.19;-19407.97;5011403;28;45429;-96
2022/12/06 00:31:04;;;;;;;;;29.00;27.00;;;;;6.53;67.87;-19388.06;4971262;28;45411;-96
2022/12/06 00:33:30;;;;;;;;;36.25;32.00;;;;;7.95;68.03;-19425.56;4998062;28;45609;-96
2022/12/06 00:35:59;;;;;;;;;30.33;30.33;;;;;8.01;68.23;-19427.31;4979679;28;48023;-96
2022/12/06 00:38:27;;;;;;;;;30.33;28.33;;;;;6.22;68.34;-19379.94;5001107;28;45460;-96
2022/12/06 00:40:59;;;;;;;;;37.33;32.67;;;;;6.52;68.56;-19387.94;5017085;28;45502;-96
2022/12/06 00:43:26;;;;;;;;;36.50;29.00;;;;;7.04;68.38;-19401.59;4970148;28;46233;-96
2022/12/06 00:45:51;;;;;;;;;36.75;32.25;;;;;6.53;68.88;-19388.06;5007204;28;47248;-96
2022/12/06 00:48:16;;;;;;;;;32.67;29.33;;;;;6.09;68.63;-19376.53;4980908;28;45510;-96
2022/12/06 00:50:42;;;;;;;;;35.33;31.33;;;;;6.26;68.40;-19380.88;5001115;28;45418;-96
2022/12/06 00:53:07;;;;;;;;;38.67;32.67;;;;;6.85;68.92;-19396.47;5001515;28;45920;-96
2022/12/06 00:55:33;;;;;;;;;28.00;27.33;;;;;6.17;68.84;-19378.44;4983065;28;48154;-96
2022/12/06 00:57:58;;;;;;;;;29.33;27.67;;;;;7.24;68.45;-19406.88;5002405;28;45506;-96
2022/12/06 01:00:24;;;;;;;;;33.67;29.00;;;;;6.33;68.55;-19382.78;5002634;28;44978;-96
2022/12/06 01:02:49;;;;;;;;;34.00;29.33;;;;;7.26;68.63;-19407.28;5001509;28;45486;-96
2022/12/06 01:05:15;;;;;;;;;32.00;30.67;;;;;7.15;68.28;-19404.44;4999098;28;47724;-96
2022/12/06 01:07:40;;;;;;;;;32.33;29.33;;;;;7.23;68.30;-19406.47;5000170;28;45772;-96
2022/12/06 01:10:06;;;;;;;;;33.33;32.67;;;;;7.34;68.62;-19409.47;5000847;28;45461;-96
2022/12/06 01:12:31;;;;;;;;;31.67;30.67;;;;;7.53;68.60;-19414.47;5012454;28;45502;-96
2022/12/06 01:14:57;;;;;;;;;34.67;29.67;;;;;7.47;68.34;-19412.84;4991994;28;47039;-96
2022/12/06 01:17:22;;;;;;;;;28.67;25.67;;;;;7.46;68.73;-19412.56;4984804;28;45498;-96
2022/12/06 01:19:48;;;;;;;;;30.00;28.00;;;;;7.79;68.75;-19421.38;4982871;28;45447;-91
2022/12/06 01:22:14;;;;;;;;;27.25;24.25;;;;;8.11;68.50;-19429.91;4966541;28;45561;-90
2022/12/06 01:24:39;;;;;;;;;37.00;29.67;;;;;6.97;68.33;-19399.84;4985330;28;48242;-91
2022/12/06 01:27:05;;;;;;;;;28.33;28.33;;;;;7.73;68.55;-19419.88;5005591;28;45634;-91
2022/12/06 01:29:30;;;;;;;;;32.67;26.00;;;;;7.81;68.35;-19421.91;4996402;28;45449;-91
2022/12/06 01:31:55;;;;;;;;;31.33;26.00;;;;;7.63;68.19;-19417.19;4995287;28;45981;-90
2022/12/06 01:34:21;;;;;;;;;27.00;27.00;;;;;7.52;68.14;-19414.19;4986360;28;48096;-91
2022/12/06 01:36:48;;;;;;;;;27.67;27.67;;;;;7.66;68.44;-19417.84;4994638;28;46080;-91
2022/12/06 01:39:13;;;;;;;;;34.33;30.00;;;;;7.64;68.86;-19417.31;4985097;28;45555;-91
2022/12/06 01:41:39;;;;;;;;;35.00;27.00;;;;;7.94;68.88;-19425.44;4980942;28;45558;-91
2022/12/06 01:44:05;;;;;;;;;32.67;24.00;;;;;7.89;68.48;-19424.06;4978200;28;47334;-91
2022/12/06 01:46:57;;;;;;;;;29.00;27.00;;;;;8.00;68.64;-19427.06;4986730;28;45836;-91
2022/12/06 01:49:29;;;;;;;;;29.33;28.67;;;;;7.71;68.40;-19419.22;4989346;28;45529;-91
2022/12/06 01:52:02;;;;;;;;;29.33;25.33;;;;;7.57;68.78;-19415.56;4994837;28;45442;-91
2022/12/06 01:54:28;;;;;;;;;31.67;26.67;;;;;8.02;68.45;-19427.47;4975233;28;47147;-91
2022/12/06 01:56:56;;;;;;;;;34.33;29.00;;;;;8.19;68.81;-19431.91;4964541;28;45943;-91
2022/12/06 01:59:24;;;;;;;;;32.00;26.00;;;;;7.70;68.54;-19419.06;4991936;28;45870;-92
2022/12/06 02:01:50;;;;;;;;;28.33;24.33;;;;;8.08;68.90;-19428.94;5002429;28;45832;-91
2022/12/06 02:04:16;;;;;;;;;35.00;29.33;;;;;8.01;68.52;-19427.31;4996755;28;48180;-92
2022/12/06 02:06:42;;;;;;;;;32.33;27.67;;;;;7.96;68.91;-19425.84;5001004;28;45497;-92
2022/12/06 02:09:10;;;;;;;;;27.00;24.33;;;;;8.09;68.60;-19429.34;4971083;28;45506;-91
2022/12/06 02:11:36;;;;;;;;;28.33;28.00;;;;;7.59;68.81;-19416.22;4975156;28;45756;-90
2022/12/06 02:14:04;;;;;;;;;34.00;30.00;;;;;7.71;68.93;-19419.22;5008078;28;48123;-90
2022/12/06 02:16:45;;;;;;;;;33.00;26.00;;;;;8.12;69.54;-19430.03;5010162;28;45467;-90
2022/12/06 02:19:10;;;;;;;;;30.33;26.67;;;;;8.10;68.90;-19429.63;5013792;28;45848;-96
2022/12/06 02:22:03;;;;;;;;;34.33;31.00;;;;;8.08;69.09;-19428.94;4999288;28;45650;-96
2022/12/06 02:24:50;;;;;;;;;34.00;31.00;;;;;7.89;69.03;-19423.94;4996761;28;45514;-96
2022/12/06 02:27:43;;;;;;;;;31.00;28.67;;;;;7.91;69.49;-19424.63;4990513;28;45456;-96
2022/12/06 02:30:36;;;;;;;;;35.67;30.67;;;;;8.12;69.00;-19430.03;4992187;28;45462;-96
2022/12/06 02:38:49;;;;;;;;;33.33;29.33;;;;;7.75;69.64;-19420.28;5018159;28;47163;-87
2022/12/06 02:41:51;;;;;;;;;32.67;29.00;;;;;8.12;69.83;-19430.16;5044163;28;45496;-90
2022/12/06 02:44:26;;;;;;;;;34.67;31.00;;;;;7.22;69.89;-19406.34;5042616;28;45496;-89
2022/12/06 02:47:00;;;;;;;;;41.33;29.67;;;;;7.52;70.08;-19414.34;5034314;28;45768;-90
2022/12/06 02:49:30;;;;;;;;;38.33;28.67;;;;;7.05;69.83;-19401.88;5027594;28;45463;-90
2022/12/06 02:51:56;;;;;;;;;32.67;31.00;;;;;7.10;69.44;-19403.22;5028682;28;45416;-90
2022/12/06 02:54:25;;;;;;;;;34.33;25.67;;;;;7.86;70.01;-19423.25;5029886;28;45846;-89
2022/12/06 02:56:51;;;;;;;;;35.33;29.33;;;;;8.19;69.91;-19432.06;5040578;28;45648;-89
2022/12/06 02:59:17;;;;;;;;;32.00;30.00;;;;;7.82;69.71;-19422.31;5035033;28;45481;-88
2022/12/06 03:01:51;;;;;;;;;38.00;28.33;;;;;7.43;69.82;-19411.91;5034297;28;45429;-90
2022/12/06 03:07:09;;;;;;;;;31.67;29.00;;;;;8.19;69.53;-19431.91;5160462;22;45582;-89
2022/12/06 03:09:52;;;;;;;;;37.00;29.67;;;;;8.19;70.10;-19432.06;5017362;28;45355;-89
2022/12/06 03:12:23;;;;;;;;;33.00;28.67;;;;;8.21;69.91;-19432.47;5017794;28;45573;-89
2022/12/06 03:15:21;;;;;;;;;28.00;25.00;;;;;8.21;70.16;-19432.47;5024667;28;45509;-90
2022/12/06 03:18:16;;;;;;;;;33.33;29.33;;;;;8.22;69.99;-19432.72;4997823;28;46292;-89
2022/12/06 03:20:55;;;;;;;;;36.67;28.67;;;;;7.78;69.82;-19421.22;4959752;28;45473;-88
2022/12/06 03:23:36;;;;;;;;;24.00;24.00;;;;;8.19;69.54;-19431.91;4954005;28;45683;-89
2022/12/06 03:26:04;;;;;;;;;31.67;29.33;;;;;8.21;69.71;-19432.47;4953070;28;45546;-89
2022/12/06 03:28:30;;;;;;;;;32.00;29.00;;;;;8.19;69.59;-19432.06;4956823;28;46570;-89
2022/12/06 03:31:03;;;;;;;;;39.67;31.67;;;;;8.08;70.04;-19428.94;4960532;28;45428;-90
2022/12/06 03:33:31;;;;;;;;;23.33;20.67;;;;;8.21;70.24;-19432.47;4954448;28;45835;-89
2022/12/06 03:35:58;;;;;;;;;34.67;30.00;;;;;8.20;70.17;-19432.31;4965961;28;46125;-88
2022/12/06 03:38:32;;;;;;;;;31.33;27.67;;;;;7.65;70.30;-19417.72;4952648;28;46371;-89
2022/12/06 03:41:02;;;;;;;;;32.33;28.67;;;;;7.95;70.28;-19425.56;4955772;28;45459;-89
2022/12/06 03:43:28;;;;;;;;;32.67;26.67;;;;;7.55;70.49;-19415.16;4955386;28;45510;-90
2022/12/06 03:46:16;;;;;;;;;25.33;25.00;;;;;7.69;70.43;-19418.66;4949729;28;45441;-89
2022/12/06 03:48:49;;;;;;;;;29.00;27.67;;;;;7.75;70.39;-19420.44;4950446;28;46579;-90
2022/12/06 03:51:25;;;;;;;;;30.33;26.33;;;;;7.71;70.30;-19419.34;4960032;28;45441;-90
2022/12/06 03:53:57;;;;;;;;;32.00;31.33;;;;;8.27;70.75;-19433.94;4951951;28;45460;-89
2022/12/06 03:56:23;;;;;;;;;34.67;27.67;;;;;7.75;70.19;-19420.28;4953666;28;45758;-89
2022/12/06 03:58:49;;;;;;;;;30.00;24.67;;;;;7.92;70.38;-19424.88;5005736;28;47423;-89
2022/12/06 04:01:14;;;;;;;;;27.33;23.00;;;;;8.16;70.31;-19431.09;5020287;28;45454;-87
2022/12/06 04:03:40;;;;;;;;;30.33;24.67;;;;;8.14;70.75;-19430.56;5019613;28;45490;-89
2022/12/06 04:06:06;;;;;;;;;35.00;30.67;;;;;8.29;70.71;-19434.50;5014180;28;45679;-89
2022/12/06 04:08:32;;;;;;;;;31.00;24.00;;;;;8.25;70.42;-19433.53;5020371;28;46875;-89
2022/12/06 04:10:57;;;;;;;;;32.33;28.67;;;;;7.05;70.33;-19401.75;5016598;28;45472;-89
2022/12/06 04:13:23;;;;;;;;;30.00;25.00;;;;;7.22;70.38;-19406.34;5014789;28;45508;-89
2022/12/06 04:15:49;;;;;;;;;32.00;27.67;;;;;8.09;70.44;-19429.34;5015985;28;45639;-89
2022/12/06 04:18:15;;;;;;;;;28.00;27.67;;;;;8.22;70.60;-19432.72;5013738;28;47198;-89
2022/12/06 04:23:50;;;;;;;;;33.33;26.67;;;;;8.32;70.41;-19435.44;5017533;28;45426;-90
2022/12/06 04:26:20;;;;;;;;;24.67;22.00;;;;;8.13;70.52;-19430.31;5017202;28;45637;-89
2022/12/06 04:39:44;;;;;;;;;33.00;27.00;;;;;7.94;70.84;-19425.28;5015683;28;45804;-86
2022/12/06 04:44:55;;;;;;;;;28.00;25.67;;;;;8.00;70.37;-19426.91;5019936;28;47288;-89
2022/12/06 04:47:20;;;;;;;;;32.33;27.67;;;;;8.32;70.68;-19435.31;5016051;28;45608;-89
2022/12/06 04:49:45;;;;;;;;;29.00;25.67;;;;;7.95;70.74;-19425.69;4997254;28;46219;-89
2022/12/06 04:52:12;;;;;;;;;27.33;23.33;;;;;8.22;70.62;-19432.88;5016858;28;45474;-90
2022/12/06 04:54:38;;;;;;;;;28.00;27.33;;;;;8.40;70.53;-19437.47;5013985;28;45524;-89
2022/12/06 04:57:09;;;;;;;;;22.67;21.00;;;;;8.06;70.70;-19428.41;5015238;28;45703;-90
2022/12/06 04:59:39;;;;;;;;;30.67;25.33;;;;;8.43;70.42;-19438.28;5022341;28;46678;-89
2022/12/06 05:02:05;;;;;;;;;29.00;25.33;;;;;8.06;70.55;-19428.53;5020991;28;45489;-89
2022/12/06 05:04:31;;;;;;;;;29.33;26.33;;;;;8.16;70.81;-19431.25;5014943;28;45666;-89
2022/12/06 05:06:56;;;;;;;;;28.67;24.67;;;;;7.87;70.09;-19423.53;5013623;28;45549;-89
2022/12/06 05:09:21;;;;;;;;;31.00;25.33;;;;;7.66;70.67;-19417.84;5014940;28;46125;-89
2022/12/06 05:11:47;;;;;;;;;24.00;24.00;;;;;8.43;70.74;-19438.41;5013995;28;45779;-89
2022/12/06 05:14:12;;;;;;;;;31.00;25.33;;;;;7.47;71.09;-19412.97;5016322;28;45466;-89
2022/12/06 05:16:37;;;;;;;;;28.33;25.67;;;;;8.05;71.18;-19428.28;5015181;28;45574;-88
2022/12/06 05:19:03;;;;;;;;;28.00;23.33;;;;;8.34;71.20;-19435.97;5014323;28;47042;-89
2022/12/06 05:24:50;;;;;;;;;30.33;27.00;;;;;7.11;71.73;-19403.38;5015920;28;45617;-89
2022/12/06 05:27:34;;;;;;;;;29.33;26.33;;;;;6.81;71.39;-19395.50;5017065;28;45552;-89
2022/12/06 05:29:59;;;;;;;;;26.67;24.33;;;;;7.17;71.88;-19405.00;5012838;28;49092;-89
2022/12/06 05:32:25;;;;;;;;;29.00;27.33;;;;;8.27;71.90;-19434.09;5024342;22;45600;-89
2022/12/06 05:37:25;;;;;;;;;32.33;27.00;;;;;8.15;72.45;-19430.97;5448006;22;46012;-87
2022/12/06 05:39:51;;;;;;;;;28.67;24.67;;;;;6.91;72.17;-19398.22;5010376;28;47151;-88
2022/12/06 05:42:16;;;;;;;;;33.33;27.67;;;;;6.97;72.53;-19399.84;5011444;28;46828;-90
2022/12/06 05:44:42;;;;;;;;;24.33;24.00;;;;;7.36;72.40;-19410.00;5010766;28;45381;-88
2022/12/06 05:47:08;;;;;;;;;27.33;24.67;;;;;8.14;72.68;-19430.56;5009598;28;45860;-87
2022/12/06 05:49:33;;;;;;;;;27.00;23.33;;;;;7.75;72.63;-19420.44;5011268;28;46114;-87
2022/12/06 05:51:58;;;;;;;;;23.67;23.67;;;;;8.17;72.78;-19431.53;5005109;28;45289;-88
2022/12/06 05:54:24;;;;;;;;;35.00;25.67;;;;;8.17;73.06;-19431.38;5015902;28;45809;-88
2022/12/06 05:56:49;;;;;;;;;29.00;25.67;;;;;8.07;73.29;-19428.81;5009149;28;45696;-88
2022/12/06 05:59:15;;;;;;;;;32.00;27.67;;;;;8.17;72.71;-19431.53;5012160;28;48237;-87
2022/12/06 06:01:41;;;;;;;;;32.33;23.67;;;;;7.97;72.78;-19426.25;5010013;28;45925;-89
2022/12/06 06:04:06;;;;;;;;;32.67;27.67;;;;;7.76;72.52;-19420.56;5011630;28;45589;-88
2022/12/06 06:06:31;;;;;;;;;30.00;26.67;;;;;8.17;73.20;-19431.38;5010150;28;45810;-88
2022/12/06 06:08:57;;;;;;;;;31.33;27.33;;;;;8.15;72.84;-19430.84;5014050;28;46753;-88
2022/12/06 06:11:22;;;;;;;;;27.67;22.00;;;;;7.89;73.30;-19424.06;5010992;28;45874;-88
2022/12/06 06:13:48;;;;;;;;;33.67;29.33;;;;;8.22;73.10;-19432.72;5013693;28;45516;-88
2022/12/06 06:16:13;;;;;;;;;33.00;30.67;;;;;8.22;72.80;-19432.88;5020715;28;45570;-87
2022/12/06 06:18:39;;;;;;;;;36.00;30.33;;;;;8.24;72.80;-19433.41;5020483;28;46524;-88
2022/12/06 06:21:07;;;;;;;;;25.67;25.33;;;;;7.87;72.91;-19423.41;5023867;28;46696;-88
2022/12/06 06:23:33;;;;;;;;;34.00;30.33;;;;;7.90;72.31;-19424.22;5011983;28;47070;-86
2022/12/06 06:25:58;;;;;;;;;35.67;31.00;;;;;7.00;72.24;-19400.53;5021124;28;45558;-90
2022/12/06 06:28:23;;;;;;;;;32.67;29.67;;;;;8.24;72.05;-19433.41;4990993;28;48338;-90
2022/12/06 06:30:52;;;;;;;;;30.75;26.00;;;;;8.24;72.08;-19433.28;5014687;28;45400;-89
2022/12/06 06:33:17;;;;;;;;;45.00;32.33;;;;;6.84;72.15;-19396.31;5008394;28;45480;-88
2022/12/06 06:38:57;;;;;;;;;42.67;33.00;;;;;8.29;72.54;-19434.50;5036405;22;45852;-86
2022/12/06 06:41:23;;;;;;;;;37.67;33.33;;;;;7.67;72.23;-19418.25;5032910;28;45529;-87
2022/12/06 06:43:48;;;;;;;;;41.00;35.67;;;;;7.71;72.55;-19419.34;5023923;28;45486;-87
2022/12/06 06:46:13;;;;;;;;;39.33;33.00;;;;;8.31;72.24;-19435.03;5032653;28;45589;-88
2022/12/06 06:48:39;;;;;;;;;40.67;35.00;;;;;7.66;72.35;-19418.00;5027105;28;48483;-87
2022/12/06 06:51:10;;;;;;;;;33.67;29.67;;;;;8.19;72.66;-19432.06;5010218;28;46805;-87
2022/12/06 06:53:37;;;;;;;;;37.67;33.00;;;;;7.93;72.19;-19425.16;5029040;28;45525;-87
2022/12/06 06:56:03;;;;;;;;;39.33;33.00;;;;;8.35;71.96;-19436.25;5027095;28;45658;-88
2022/12/06 06:58:28;;;;;;;;;39.67;32.67;;;;;8.36;72.51;-19436.38;5024629;28;48217;-87
2022/12/06 07:00:56;;;;;;;;;34.67;30.67;;;;;8.36;72.49;-19436.38;5026003;28;46019;-88
2022/12/06 07:03:23;;;;;;;;;36.67;32.67;;;;;8.24;72.43;-19433.41;5025948;28;45430;-88
2022/12/06 07:05:56;;;;;;;;;37.00;32.00;;;;;8.07;72.48;-19428.69;5019076;28;45668;-88
2022/12/06 07:08:23;;;;;;;;;48.00;34.33;;;;;8.21;72.44;-19432.59;5029720;28;47634;-88
2022/12/06 07:10:48;;;;;;;;;40.00;34.50;;;;;7.79;72.58;-19421.50;5035650;28;45797;-87
2022/12/06 07:13:15;;;;;;;;;37.67;33.67;;;;;7.68;72.81;-19418.53;5027179;28;45499;-89
2022/12/06 07:15:40;;;;;;;;;34.75;28.00;;;;;8.32;72.33;-19435.31;5023460;28;46308;-90
2022/12/06 07:18:06;;;;;;;;;37.33;33.00;;;;;7.91;72.50;-19424.47;5022976;28;47362;-91
2022/12/06 07:20:33;;;;;;;;;37.67;32.67;;;;;7.82;72.43;-19422.31;5034224;28;45632;-95
2022/12/06 07:23:02;;;;;;;;;40.75;32.75;;;;;6.45;72.47;-19386.03;5082623;22;46010;-87
2022/12/06 07:26:12;;;;;;;;;40.67;35.00;;;;;8.28;72.30;-19434.34;5183476;23;46360;-88
2022/12/06 07:28:39;;;;;;;;;43.00;32.50;;;;;7.29;72.13;-19408.25;5029435;28;47145;-90
2022/12/06 07:31:25;;;;;;;;;38.00;34.67;;;;;8.27;72.36;-19434.09;5036845;28;45499;-85
2022/12/06 07:45:25;;;;;;;;;44.33;34.33;;;;;8.02;72.46;-19427.47;5023706;28;45739;-89
2022/12/06 07:47:51;;;;;;;;;47.33;35.33;;;;;8.06;72.53;-19428.41;5012834;28;45715;-89
2022/12/06 07:50:19;;;;;;;;;39.50;34.25;;;;;7.46;72.51;-19412.56;5015114;28;47546;-89
2022/12/06 07:52:46;;;;;;;;;44.75;35.00;;;;;8.32;72.69;-19435.31;5018105;28;45517;-88
2022/12/06 07:55:12;;;;;;;;;38.67;30.33;;;;;7.95;73.07;-19425.69;5013322;28;45552;-90
2022/12/06 07:57:38;;;;;;;;;44.67;34.33;;;;;8.06;73.05;-19428.41;5003845;28;45689;-90
2022/12/06 08:00:05;;;;;;;;;30.75;23.00;;;;;8.35;72.65;-19436.25;5001219;28;46370;-90
2022/12/06 08:02:31;;;;;;;;;42.67;34.67;;;;;8.08;73.14;-19429.09;5014511;28;45779;-89
2022/12/06 08:04:57;;;;;;;;;34.67;31.00;;;;;7.80;72.97;-19421.78;4990763;28;45614;-90
2022/12/06 08:07:23;;;;;;;;;32.33;29.67;;;;;8.39;73.10;-19437.34;5016334;28;45549;-90
2022/12/06 08:09:50;;;;;;;;;41.33;33.00;;;;;8.14;73.28;-19430.56;5011781;28;45971;-89
2022/12/06 08:12:15;;;;;;;;;37.33;31.00;;;;;7.80;72.93;-19421.66;5011957;28;45524;-89
2022/12/06 08:14:41;;;;;;;;;40.33;33.00;;;;;8.39;73.61;-19437.19;5009748;28;45658;-89
2022/12/06 08:17:06;;;;;;;;;45.25;36.25;;;;;8.14;73.65;-19430.56;5017162;28;45315;-89
2022/12/06 08:19:32;;;;;;;;;50.50;39.00;;;;;7.88;73.15;-19423.66;5015216;28;45860;-89
2022/12/06 08:21:57;;;;;;;;;48.50;37.50;;;;;8.29;73.19;-19434.50;5013667;28;46568;-89
2022/12/06 08:24:23;;;;;;;;;72.50;57.00;;;;;8.21;73.36;-19432.59;5005897;28;45528;-89
2022/12/06 08:26:51;;;;;;;;;79.00;63.75;;;;;8.42;73.22;-19438.00;5006619;28;45694;-90
2022/12/06 08:29:16;;;;;;;;;55.00;43.50;;;;;8.39;73.19;-19437.34;5010694;28;47484;-90
2022/12/06 08:31:44;;;;;;;;;73.00;53.75;;;;;8.06;73.61;-19428.53;5002405;28;45558;-89
2022/12/06 08:34:11;;;;;;;;;49.25;36.00;;;;;8.36;73.45;-19436.38;5035392;28;45369;-89
2022/12/06 08:36:38;;;;;;;;;40.50;35.25;;;;;7.87;73.66;-19423.53;4994499;28;45771;-89
2022/12/06 08:39:04;;;;;;;;;47.00;36.00;;;;;7.83;73.54;-19422.44;5011703;28;46227;-89
2022/12/06 08:42:15;;;;;;;;;38.00;32.25;;;;;8.35;73.43;-19436.25;5011373;28;45718;-90
2022/12/06 08:44:16;;;;;;;;;48.50;40.25;;;;;8.36;73.75;-19436.53;5004078;28;45477;-89
2022/12/06 08:46:42;;;;;;;;;45.75;35.25;;;;;8.36;73.80;-19436.38;5024828;28;45943;-89
2022/12/06 08:49:08;;;;;;;;;42.67;33.00;;;;;8.08;73.96;-19429.09;5002634;28;46299;-90
2022/12/06 08:51:36;;;;;;;;;39.50;35.00;;;;;8.35;73.85;-19436.25;5013880;28;45524;-90
2022/12/06 08:54:02;;;;;;;;;37.50;31.25;;;;;7.98;73.95;-19426.50;5022399;28;45431;-90
2022/12/06 08:56:28;;;;;;;;;48.00;35.00;;;;;8.01;74.35;-19427.19;5019179;28;45311;-90
2022/12/06 08:58:55;;;;;;;;;47.25;36.50;;;;;7.92;74.33;-19424.75;5014251;28;46607;-89
2022/12/06 09:01:31;;;;;;;;;41.00;35.00;;;;;7.74;74.37;-19420.03;5017423;28;45514;-89
2022/12/06 09:04:01;;;;;;;;;41.25;35.50;;;;;8.42;74.83;-19438.16;5041802;28;45419;-89
2022/12/06 09:06:27;;;;;;;;;49.00;36.00;;;;;8.08;74.62;-19429.09;5049368;28;45584;-89
2022/12/06 09:08:52;;;;;;;;;45.25;34.50;;;;;7.81;74.40;-19422.03;5030984;28;48452;-90
2022/12/06 09:11:18;;;;;;;;;41.75;36.00;;;;;7.68;74.51;-19418.53;5035269;28;45647;-90
2022/12/06 09:13:43;;;;;;;;;48.75;36.25;;;;;7.71;74.65;-19419.34;5034290;28;45440;-89
2022/12/06 09:16:10;;;;;;;;;43.00;35.25;;;;;7.56;74.50;-19415.28;5034614;28;45540;-89
2022/12/06 09:18:36;;;;;;;;;49.50;38.00;;;;;8.28;74.29;-19434.34;5036545;28;45467;-89
2022/12/06 09:21:06;;;;;;;;;47.00;36.25;;;;;8.16;74.95;-19431.25;5007005;28;45406;-89
2022/12/06 09:23:33;;;;;;;;;45.75;34.75;;;;;8.25;74.65;-19433.69;5026238;28;45435;-89
2022/12/06 09:25:59;;;;;;;;;47.25;35.25;;;;;7.82;74.60;-19422.19;5034252;28;47009;-90
2022/12/06 09:28:24;;;;;;;;;46.50;36.50;;;;;8.19;74.92;-19431.91;5044553;28;48110;-89
2022/12/06 09:30:49;;;;;;;;;48.00;38.50;;;;;8.05;75.10;-19428.28;5028801;28;46146;-90
2022/12/06 09:33:15;;;;;;;;;39.75;31.50;;;;;7.52;75.11;-19414.34;5008867;28;45469;-89
2022/12/06 09:35:40;;;;;;;;;52.00;40.50;;;;;7.75;75.26;-19420.28;5025825;28;45641;-89
2022/12/06 09:38:06;;;;;;;;;48.50;36.00;;;;;7.82;75.27;-19422.31;5031094;28;47007;-89
2022/12/06 09:40:34;;;;;;;;;43.25;32.25;;;;;8.08;74.92;-19428.94;5015029;28;46706;-89
2022/12/06 09:43:12;;;;;;;;;45.00;35.25;;;;;8.32;75.05;-19435.44;5026228;28;45871;-90
2022/12/06 09:46:07;;;;;;;;;42.00;36.00;;;;;8.33;75.09;-19435.72;5037623;28;45966;-92
2022/12/06 09:48:44;;;;;;;;;49.50;39.00;;;;;8.37;74.90;-19436.66;5019573;28;48554;-90
2022/12/06 09:51:18;;;;;;;;;49.75;35.75;;;;;8.37;74.97;-19436.78;5014418;28;46151;-90
2022/12/06 09:54:05;;;;;;;;;50.50;39.50;;;;;8.39;74.88;-19437.19;5027860;28;45502;-89
2022/12/06 09:56:40;;;;;;;;;45.50;36.00;;;;;8.40;74.78;-19437.47;5020008;28;45596;-89
2022/12/06 09:59:16;;;;;;;;;48.75;39.00;;;;;8.23;74.44;-19433.13;5033218;28;45524;-89
2022/12/06 10:02:07;;;;;;;;;38.00;33.00;;;;;8.35;74.69;-19436.13;5030073;28;45567;-89
2022/12/06 10:05:01;;;;;;;;;35.00;31.25;;;;;8.32;75.00;-19435.44;5033559;28;46040;-90
2022/12/06 10:07:26;;;;;;;;;39.00;35.50;;;;;8.34;75.38;-19435.84;5032327;28;45733;-89
2022/12/06 10:10:10;;;;;;;;;48.50;35.75;;;;;8.32;75.53;-19435.44;5038775;28;48482;-91
2022/12/06 10:12:50;;;;;;;;;44.00;36.00;;;;;8.29;75.88;-19434.50;5037058;28;45818;-91
2022/12/06 10:15:50;;;;;;;;;43.50;37.00;;;;;8.27;76.06;-19434.09;5029494;28;46169;-89
2022/12/06 10:18:34;;;;;;;;;48.33;36.00;;;;;8.29;76.34;-19434.63;5038707;28;45502;-89
2022/12/06 10:26:55;;;;;;;;;48.50;36.00;;;;;8.29;76.58;-19434.50;5014230;28;46032;-88
2022/12/06 10:29:51;;;;;;;;;43.75;35.00;;;;;8.30;76.24;-19434.75;5010629;28;46762;-88
2022/12/06 10:33:05;;;;;;;;;49.00;35.00;;;;;8.31;76.24;-19435.03;5012737;28;46700;-88
2022/12/06 10:36:23;;;;;;;;;;;;;;;;;;;;;
2022/12/06 10:54:11;;;;;;;;;44.75;37.75;;;;;8.35;77.37;-19436.25;5012859;28;46207;-87
2022/12/06 10:56:39;;;;;;;;;53.25;40.75;;;;;8.22;77.34;-19432.72;4993817;28;47571;-85
2022/12/06 10:59:24;;;;;;;;;49.50;39.50;;;;;7.92;77.03;-19424.75;5004290;28;45898;-87
2022/12/06 11:01:51;;;;;;;;;42.75;36.75;;;;;8.32;77.15;-19435.44;5009253;28;45434;-86
2022/12/06 11:04:35;;;;;;;;;44.50;38.25;;;;;8.47;77.51;-19439.22;5004912;28;45407;-88
2022/12/06 11:07:07;;;;;;;;;47.75;36.75;;;;;8.52;77.67;-19440.72;5007836;28;47275;-88
2022/12/06 11:09:45;;;;;;;;;48.75;35.00;;;;;7.93;76.96;-19425.03;5011691;28;45619;-87
2022/12/06 11:12:20;;;;;;;;;56.25;44.00;;;;;8.24;77.35;-19433.28;5003102;28;45396;-86
2022/12/06 11:14:53;;;;;;;;;49.00;38.25;;;;;7.87;77.15;-19423.41;5009765;28;45591;-87
2022/12/06 11:17:23;;;;;;;;;54.75;39.50;;;;;8.22;77.98;-19432.72;5009917;28;45442;-90
2022/12/06 11:19:51;;;;;;;;;44.00;37.75;;;;;8.23;77.25;-19433.13;5017041;28;45473;-92
2022/12/06 11:22:36;;;;;;;;;39.00;32.50;;;;;8.14;77.75;-19430.69;5017772;28;45430;-88
2022/12/06 11:25:21;;;;;;;;;52.00;37.50;;;;;8.52;77.50;-19440.72;5003794;28;45449;-89
2022/12/06 11:27:53;;;;;;;;;49.00;37.75;;;;;8.55;77.82;-19441.41;4994756;28;48292;-89
2022/12/06 11:30:19;;;;;;;;;52.75;40.00;;;;;8.11;77.72;-19429.91;5005213;28;45545;-90
2022/12/06 11:32:47;;;;;;;;;51.50;37.25;;;;;8.54;77.46;-19441.25;4993202;28;45483;-89
2022/12/06 11:35:16;;;;;;;;;48.25;39.50;;;;;8.54;77.83;-19441.25;5012527;28;45451;-89
2022/12/06 11:37:44;;;;;;;;;50.75;40.00;;;;;8.02;77.63;-19427.59;5018958;28;45737;-87
2022/12/06 11:40:32;;;;;;;;;48.75;38.75;;;;;7.89;78.19;-19423.94;4998411;28;46383;-89
2022/12/06 11:43:01;;;;;;;;;49.75;41.25;;;;;7.96;78.26;-19425.97;5013614;28;45551;-89
2022/12/06 11:45:30;;;;;;;;;43.00;36.75;;;;;8.66;77.79;-19444.50;4998549;28;45854;-89
2022/12/06 11:47:58;;;;;;;;;41.00;35.75;;;;;7.76;77.83;-19420.69;4989283;28;47573;-89
2022/12/06 11:50:27;;;;;;;;;41.50;35.25;;;;;8.68;77.95;-19444.78;5021765;28;45482;-89
2022/12/06 11:53:01;;;;;;;;;48.75;39.50;;;;;8.27;78.04;-19434.09;5010934;28;45464;-88
2022/12/06 11:55:30;;;;;;;;;46.00;38.50;;;;;8.71;78.09;-19445.59;5010328;28;45873;-89
2022/12/06 11:58:21;;;;;;;;;54.50;40.00;;;;;7.85;77.90;-19422.88;5009086;28;48484;-89
2022/12/06 12:01:09;;;;;;;;;50.75;39.50;;;;;8.73;77.83;-19446.25;4995258;28;45560;-95
2022/12/06 12:03:37;;;;;;;;;50.50;40.75;;;;;8.00;77.99;-19427.06;5007932;28;45525;-88
2022/12/06 12:06:20;;;;;;;;;51.00;42.00;;;;;8.75;78.34;-19446.78;5005727;28;45457;-88
2022/12/06 12:09:01;;;;;;;;;44.75;35.50;;;;;8.67;78.19;-19444.63;4996584;28;48110;-88
2022/12/06 12:11:30;;;;;;;;;52.75;41.50;;;;;8.02;78.48;-19427.59;5015799;28;45577;-87
2022/12/06 12:14:06;;;;;;;;;56.50;45.00;;;;;8.41;78.51;-19437.88;5019624;28;45483;-88
2022/12/06 12:16:41;;;;;;;;;55.75;42.75;;;;;8.56;78.24;-19441.78;5009684;28;46418;-88
2022/12/06 12:19:47;;;;;;;;;53.00;40.25;;;;;8.87;78.53;-19450.03;5022013;28;45430;-88
2022/12/06 12:22:41;;;;;;;;;52.25;44.00;;;;;8.92;78.43;-19451.25;4990265;28;46091;-88
2022/12/06 12:25:18;;;;;;;;;55.50;42.25;;;;;8.97;78.60;-19452.47;5001097;28;45522;-88
2022/12/06 12:27:49;;;;;;;;;52.25;41.75;;;;;9.00;78.21;-19453.28;5029058;28;45592;-89
2022/12/06 12:30:21;;;;;;;;;57.25;45.00;;;;;9.02;78.29;-19453.81;5028648;28;45643;-88
2022/12/06 12:32:49;;;;;;;;;57.25;42.50;;;;;8.77;78.45;-19447.22;5032120;28;45998;-88
2022/12/06 12:35:20;;;;;;;;;52.75;43.50;;;;;9.09;78.34;-19455.72;5011805;28;45645;-88
2022/12/06 12:37:53;;;;;;;;;51.50;42.75;;;;;8.80;78.21;-19448.16;5017562;28;45538;-88
2022/12/06 12:40:27;;;;;;;;;52.00;42.75;;;;;8.67;78.15;-19444.63;5012298;28;47735;-88
2022/12/06 12:43:04;;;;;;;;;49.75;40.75;;;;;9.04;78.35;-19454.38;5018312;28;45457;-88